createdAt,value
2023-03-31T00:01:01.001Z,3.19
2023-03-31T00:03:28.252Z,3.24
2023-03-31T00:06:02.085Z,3.29
2023-03-31T00:08:35.775Z,3.25
2023-03-31T00:11:05.436Z,3.33
2023-03-31T00:13:32.431Z,3.37
2023-03-31T00:16:06.160Z,3.33
2023-03-31T00:18:33.747Z,3.57
2023-03-31T00:21:24.913Z,4.01
2023-03-31T00:23:58.386Z,3.67
2023-03-31T00:26:26.485Z,3.58
2023-03-31T00:28:54.040Z,3.70
2023-03-31T00:31:22.449Z,3.49
2023-03-31T00:33:50.037Z,3.51
2023-03-31T00:36:21.517Z,3.61
2023-03-31T00:38:49.400Z,3.50
2023-03-31T00:41:16.805Z,3.53
2023-03-31T00:44:08.689Z,3.61
2023-03-31T00:46:52.815Z,3.62
2023-03-31T00:49:31.463Z,3.55
2023-03-31T00:52:37.500Z,3.57
2023-03-31T00:55:10.038Z,3.37
2023-03-31T00:57:41.028Z,3.34
2023-03-31T01:00:17.017Z,3.41
2023-03-31T01:02:52.686Z,3.38
2023-03-31T01:05:23.190Z,3.38
2023-03-31T01:07:51.998Z,3.57
2023-03-31T01:10:18.956Z,3.52
2023-03-31T01:12:56.066Z,3.46
2023-03-31T01:15:23.449Z,3.57
2023-03-31T01:17:55.998Z,3.55
2023-03-31T01:20:50.835Z,3.30
2023-03-31T01:23:21.006Z,3.24
2023-03-31T01:26:33.481Z,3.23
2023-03-31T01:29:18.606Z,3.27
2023-03-31T01:32:18.128Z,3.38
2023-03-31T01:34:53.819Z,3.34
2023-03-31T01:37:39.291Z,3.44
2023-03-31T01:40:24.439Z,3.40
2023-03-31T01:42:53.962Z,3.54
2023-03-31T01:45:54.181Z,3.61
2023-03-31T01:48:23.923Z,3.77
2023-03-31T01:50:58.889Z,3.75
2023-03-31T01:53:47.317Z,3.51
2023-03-31T01:56:22.608Z,3.48
2023-03-31T01:58:58.674Z,3.46
2023-03-31T02:01:38.192Z,3.31
2023-03-31T02:04:10.703Z,3.28
2023-03-31T02:06:42.889Z,3.35
2023-03-31T02:09:15.928Z,3.10
2023-03-31T02:11:45.774Z,3.09
2023-03-31T02:14:19.386Z,3.18
2023-03-31T02:16:50.375Z,3.29
2023-03-31T02:19:19.438Z,3.19
2023-03-31T02:21:50.166Z,3.12
2023-03-31T02:24:20.420Z,3.16
2023-03-31T02:27:14.156Z,3.16
2023-03-31T02:29:41.554Z,3.80
2023-03-31T02:32:25.973Z,3.80
2023-03-31T02:34:55.188Z,3.72
2023-03-31T02:37:22.817Z,4.16
2023-03-31T02:39:52.922Z,3.94
2023-03-31T02:42:20.385Z,3.66
2023-03-31T02:44:50.072Z,4.00
2023-03-31T02:47:19.297Z,3.90
2023-03-31T02:49:51.616Z,3.62
2023-03-31T02:52:40.549Z,3.57
2023-03-31T02:55:53.408Z,3.57
2023-03-31T02:58:42.409Z,3.02
2023-03-31T03:01:24.070Z,2.98
2023-03-31T03:04:17.073Z,2.91
2023-03-31T03:07:22.268Z,2.94
2023-03-31T03:10:04.829Z,3.00
2023-03-31T03:12:43.229Z,2.97
2023-03-31T03:15:21.589Z,2.78
2023-03-31T03:17:50.126Z,2.84
2023-03-31T03:20:20.255Z,2.92
2023-03-31T03:22:47.952Z,2.92
2023-03-31T03:25:17.395Z,3.01
2023-03-31T03:27:44.301Z,3.10
2023-03-31T03:30:13.165Z,2.90
2023-03-31T03:32:41.519Z,2.79
2023-03-31T03:35:08.978Z,2.90
2023-03-31T03:37:36.121Z,3.04
2023-03-31T03:40:05.913Z,3.06
2023-03-31T03:42:34.263Z,3.09
2023-03-31T03:45:01.662Z,3.11
2023-03-31T03:47:29.151Z,3.10
2023-03-31T03:49:56.538Z,3.15
2023-03-31T03:52:23.414Z,3.29
2023-03-31T03:54:50.272Z,3.08
2023-03-31T03:57:17.328Z,3.05
2023-03-31T03:59:44.368Z,3.14
2023-03-31T04:02:11.483Z,3.24
2023-03-31T04:04:38.398Z,3.20
2023-03-31T04:07:06.108Z,3.34
2023-03-31T04:09:33.041Z,3.37
2023-03-31T04:12:00.130Z,3.39
2023-03-31T04:14:27.250Z,3.53
2023-03-31T04:16:56.568Z,3.63
2023-03-31T04:19:26.147Z,3.45
2023-03-31T04:21:59.035Z,3.58
2023-03-31T04:24:30.752Z,3.75
2023-03-31T04:26:58.105Z,3.65
2023-03-31T04:29:26.837Z,3.58
2023-03-31T04:31:58.886Z,3.75
2023-03-31T04:34:35.227Z,4.13
2023-03-31T04:37:03.086Z,4.24
2023-03-31T04:39:31.238Z,4.64
2023-03-31T04:41:59.078Z,5.19
2023-03-31T04:44:27.377Z,5.09
2023-03-31T04:46:55.128Z,5.18
2023-03-31T04:49:22.462Z,5.30
2023-03-31T04:51:49.440Z,5.63
2023-03-31T04:54:16.681Z,5.44
2023-03-31T04:56:46.663Z,5.84
2023-03-31T04:59:13.745Z,7.02
2023-03-31T05:01:45.190Z,8.68
2023-03-31T05:04:12.146Z,7.81
2023-03-31T05:06:39.003Z,7.93
2023-03-31T05:09:06.658Z,8.13
2023-03-31T05:11:33.624Z,8.64
2023-03-31T05:14:00.706Z,7.73
2023-03-31T05:16:28.758Z,7.42
2023-03-31T05:18:55.764Z,7.64
2023-03-31T05:21:22.962Z,7.78
2023-03-31T05:23:50.297Z,7.47
2023-03-31T05:26:17.248Z,7.12
2023-03-31T05:28:44.449Z,7.56
2023-03-31T05:31:13.134Z,7.85
2023-03-31T05:33:42.132Z,7.51
2023-03-31T05:36:12.053Z,6.98
2023-03-31T05:38:39.354Z,7.32
2023-03-31T05:41:07.267Z,7.87
2023-03-31T05:43:34.189Z,8.22
2023-03-31T05:46:01.509Z,7.39
2023-03-31T05:48:28.604Z,7.70
2023-03-31T05:50:59.650Z,8.06
2023-03-31T05:53:27.683Z,8.58
2023-03-31T05:56:03.154Z,8.09
2023-03-31T05:58:30.529Z,8.54
2023-03-31T06:01:08.852Z,8.80
2023-03-31T06:03:38.336Z,9.04
2023-03-31T06:06:06.343Z,8.56
2023-03-31T06:08:33.316Z,9.42
2023-03-31T06:11:00.807Z,10.24
2023-03-31T06:13:27.654Z,9.41
2023-03-31T06:16:00.095Z,9.98
2023-03-31T06:18:29.201Z,10.52
2023-03-31T06:20:57.015Z,9.79
2023-03-31T06:23:24.966Z,9.51
2023-03-31T06:25:53.154Z,10.03
2023-03-31T06:28:21.536Z,9.50
2023-03-31T06:30:48.514Z,8.96
2023-03-31T06:33:16.545Z,9.21
2023-03-31T06:35:43.406Z,9.70
2023-03-31T06:38:10.797Z,8.39
2023-03-31T06:40:37.837Z,8.45
2023-03-31T06:43:04.761Z,8.90
2023-03-31T06:45:31.557Z,8.39
2023-03-31T06:47:58.851Z,8.64
2023-03-31T06:50:25.846Z,8.90
2023-03-31T06:52:55.167Z,8.70
2023-03-31T06:55:22.317Z,8.47
2023-03-31T06:57:49.148Z,8.92
2023-03-31T07:00:16.870Z,9.23
2023-03-31T07:02:43.766Z,8.43
2023-03-31T07:05:11.124Z,8.97
2023-03-31T07:07:38.082Z,9.10
2023-03-31T07:10:05.689Z,8.55
2023-03-31T07:12:35.650Z,8.45
2023-03-31T07:15:02.537Z,8.86
2023-03-31T07:17:29.468Z,9.02
2023-03-31T07:19:56.548Z,8.72
2023-03-31T07:39:45.736Z,9.12
2023-03-31T07:42:12.688Z,9.35
2023-03-31T07:44:39.601Z,9.47
2023-03-31T07:47:06.542Z,9.77
2023-03-31T07:49:34.691Z,9.95
2023-03-31T07:52:01.993Z,9.93
2023-03-31T07:54:29.108Z,8.71
2023-03-31T07:56:56.238Z,8.62
2023-03-31T07:59:23.266Z,9.33
2023-03-31T08:01:50.925Z,9.52
2023-03-31T08:04:18.016Z,8.82
2023-03-31T08:06:44.880Z,8.77
2023-03-31T08:09:12.005Z,9.21
2023-03-31T08:11:38.844Z,9.33
2023-03-31T08:14:05.803Z,9.70
2023-03-31T08:16:32.906Z,9.86
2023-03-31T08:18:59.765Z,9.82
2023-03-31T08:21:28.642Z,9.55
2023-03-31T08:23:56.165Z,8.40
2023-03-31T08:26:25.476Z,8.76
2023-03-31T08:28:53.357Z,8.83
2023-03-31T08:31:21.658Z,8.13
2023-03-31T08:33:48.621Z,7.82
2023-03-31T08:36:15.629Z,7.98
2023-03-31T08:38:46.188Z,7.80
2023-03-31T08:41:36.632Z,7.01
2023-03-31T08:44:11.099Z,7.03
2023-03-31T08:46:39.378Z,6.86
2023-03-31T08:49:07.580Z,6.29
2023-03-31T08:51:41.397Z,6.45
2023-03-31T08:54:17.073Z,6.72
2023-03-31T08:56:49.423Z,6.43
2023-03-31T08:59:36.366Z,6.64
2023-03-31T09:02:03.496Z,6.88
2023-03-31T09:05:00.945Z,6.40
2023-03-31T09:07:39.939Z,6.70
2023-03-31T09:10:13.145Z,7.16
2023-03-31T09:12:49.916Z,6.54
2023-03-31T09:15:28.517Z,6.86
2023-03-31T09:17:59.679Z,7.45
2023-03-31T09:20:33.200Z,6.67
2023-03-31T09:23:34.158Z,6.73
2023-03-31T09:26:03.440Z,7.09
2023-03-31T09:28:39.288Z,6.63
2023-03-31T09:31:14.613Z,6.96
2023-03-31T09:33:46.021Z,7.28
2023-03-31T09:36:19.018Z,6.90
2023-03-31T09:38:47.468Z,7.06
2023-03-31T09:41:16.767Z,7.32
2023-03-31T09:43:46.366Z,7.09
2023-03-31T09:46:26.007Z,6.90
2023-03-31T09:49:00.538Z,7.22
2023-03-31T09:51:32.759Z,6.79
2023-03-31T09:54:12.490Z,6.81
2023-03-31T09:56:42.325Z,7.16
2023-03-31T09:59:18.456Z,6.75
2023-03-31T10:01:48.084Z,6.74
2023-03-31T10:04:27.818Z,7.00
2023-03-31T10:06:56.444Z,6.82
2023-03-31T10:09:28.593Z,6.99
2023-03-31T10:12:04.744Z,7.16
2023-03-31T10:14:44.531Z,7.34
2023-03-31T10:17:17.062Z,7.22
2023-03-31T10:20:19.116Z,7.35
2023-03-31T10:22:46.322Z,7.05
2023-03-31T10:25:20.788Z,7.10
2023-03-31T10:27:53.075Z,7.29
2023-03-31T10:30:27.166Z,7.35
2023-03-31T10:32:54.915Z,7.38
2023-03-31T10:35:27.088Z,7.59
2023-03-31T10:38:03.344Z,7.65
2023-03-31T10:40:34.786Z,7.54
2023-03-31T10:43:13.101Z,7.91
2023-03-31T10:45:56.430Z,8.19
2023-03-31T10:48:28.058Z,8.23
2023-03-31T10:50:59.979Z,8.66
2023-03-31T10:53:29.534Z,9.05
2023-03-31T10:56:02.509Z,9.20
2023-03-31T10:59:04.248Z,9.49
2023-03-31T11:01:50.725Z,10.04
2023-03-31T11:04:32.564Z,10.02
2023-03-31T11:07:27.506Z,9.96
2023-03-31T11:10:22.766Z,10.63
2023-03-31T11:12:59.684Z,10.48
2023-03-31T11:15:39.596Z,10.25
2023-03-31T11:18:36.096Z,10.56
2023-03-31T11:21:33.246Z,10.35
2023-03-31T11:24:15.422Z,10.85
2023-03-31T11:27:25.925Z,11.23
2023-03-31T11:30:10.935Z,11.44
2023-03-31T11:32:49.710Z,11.78
2023-03-31T11:35:32.965Z,12.42
2023-03-31T11:38:02.867Z,11.56
2023-03-31T11:40:38.573Z,11.42
2023-03-31T11:43:14.789Z,11.24
2023-03-31T11:45:51.017Z,11.14
2023-03-31T11:48:32.201Z,11.04
2023-03-31T11:51:02.151Z,10.07
2023-03-31T11:53:36.818Z,9.69
2023-03-31T11:56:08.065Z,10.04
2023-03-31T11:58:44.594Z,10.26
2023-03-31T12:01:17.256Z,10.63
2023-03-31T12:03:47.333Z,11.03
2023-03-31T12:06:19.991Z,11.15
2023-03-31T12:09:12.138Z,11.64
2023-03-31T12:11:46.791Z,12.33
2023-03-31T12:14:33.806Z,13.04
2023-03-31T12:17:09.341Z,13.75
2023-03-31T12:19:51.374Z,14.04
2023-03-31T12:22:27.098Z,14.07
2023-03-31T12:24:54.516Z,14.32
2023-03-31T12:27:30.724Z,14.22
2023-03-31T12:30:07.370Z,13.87
2023-03-31T12:32:42.583Z,13.66
2023-03-31T12:35:12.498Z,13.46
2023-03-31T12:38:10.790Z,12.94
2023-03-31T12:41:04.373Z,12.34
2023-03-31T12:43:33.813Z,11.95
2023-03-31T12:46:33.059Z,11.67
2023-03-31T12:49:18.746Z,11.64
2023-03-31T12:52:01.456Z,11.58
2023-03-31T12:54:43.629Z,11.83
2023-03-31T12:57:10.620Z,11.50
2023-03-31T13:00:05.330Z,11.37
2023-03-31T13:02:32.269Z,11.73
2023-03-31T13:04:59.178Z,12.02
2023-03-31T13:07:29.109Z,12.59
2023-03-31T13:10:19.936Z,12.49
2023-03-31T13:13:16.564Z,12.49
2023-03-31T13:16:02.807Z,12.70
2023-03-31T13:18:33.747Z,13.11
2023-03-31T13:21:23.295Z,12.93
2023-03-31T13:23:50.957Z,13.03
2023-03-31T13:26:32.867Z,13.35
2023-03-31T13:29:21.670Z,13.48
2023-03-31T13:32:25.653Z,13.34
2023-03-31T13:35:00.892Z,13.32
2023-03-31T13:37:54.837Z,13.39
2023-03-31T13:40:57.351Z,13.84
2023-03-31T13:43:27.320Z,14.13
2023-03-31T13:46:10.452Z,14.48
2023-03-31T13:48:57.654Z,14.63
2023-03-31T13:51:47.370Z,14.88
2023-03-31T13:54:45.866Z,14.59
2023-03-31T13:57:39.460Z,15.04
2023-03-31T14:00:12.747Z,15.40
2023-03-31T14:02:57.433Z,15.20
2023-03-31T14:05:31.364Z,14.26
2023-03-31T14:08:02.548Z,13.78
2023-03-31T14:10:34.220Z,13.32
2023-03-31T14:13:09.958Z,13.40
2023-03-31T14:15:40.970Z,13.67
2023-03-31T14:18:10.911Z,13.98
2023-03-31T14:20:47.622Z,13.25
2023-03-31T14:23:29.782Z,13.08
2023-03-31T14:26:04.560Z,13.23
2023-03-31T14:28:54.317Z,13.11
2023-03-31T14:32:02.558Z,13.66
2023-03-31T14:34:39.908Z,13.99
2023-03-31T14:37:21.867Z,14.10
2023-03-31T14:39:56.482Z,14.17
2023-03-31T14:42:40.656Z,14.29
2023-03-31T14:45:18.585Z,14.58
2023-03-31T14:47:56.987Z,14.75
2023-03-31T14:50:38.182Z,14.81
2023-03-31T14:53:05.213Z,14.49
2023-03-31T14:55:49.289Z,14.55
2023-03-31T14:58:29.802Z,14.40
2023-03-31T15:00:56.932Z,13.93
2023-03-31T15:03:26.123Z,13.85
2023-03-31T15:06:01.249Z,13.83
2023-03-31T15:08:30.531Z,13.87
2023-03-31T15:11:12.992Z,13.97
2023-03-31T15:14:05.146Z,13.89
2023-03-31T15:16:45.580Z,14.01
2023-03-31T15:19:16.624Z,14.00
2023-03-31T15:21:44.823Z,13.94
2023-03-31T15:24:13.939Z,14.17
2023-03-31T15:26:50.076Z,14.30
2023-03-31T15:29:20.167Z,14.41
2023-03-31T15:31:48.321Z,14.41
2023-03-31T15:34:23.000Z,14.20
2023-03-31T15:36:50.189Z,13.56
2023-03-31T15:39:17.185Z,13.23
2023-03-31T15:41:47.024Z,12.85
2023-03-31T15:44:32.576Z,12.58
2023-03-31T15:47:13.043Z,12.21
2023-03-31T15:49:50.026Z,11.64
2023-03-31T15:52:42.080Z,11.43
2023-03-31T15:55:41.200Z,11.16
2023-03-31T15:58:15.793Z,11.03
2023-03-31T16:00:47.519Z,11.01
2023-03-31T16:03:17.126Z,11.09
2023-03-31T16:05:55.799Z,10.99
2023-03-31T16:08:38.228Z,10.87
2023-03-31T16:11:09.803Z,10.86
2023-03-31T16:13:40.906Z,10.74
2023-03-31T16:16:11.009Z,10.62
2023-03-31T16:18:42.576Z,10.46
2023-03-31T16:21:10.038Z,10.46
2023-03-31T16:23:41.664Z,10.48
2023-03-31T16:26:08.768Z,10.53
2023-03-31T16:28:37.410Z,10.65
2023-03-31T16:31:06.133Z,10.62
2023-03-31T16:33:54.165Z,10.50
2023-03-31T16:36:21.165Z,10.50
2023-03-31T16:38:48.885Z,10.49
2023-03-31T16:41:16.107Z,10.44
2023-03-31T16:43:45.475Z,10.41
2023-03-31T16:46:12.815Z,10.27
2023-03-31T16:48:39.791Z,10.14
2023-03-31T16:51:06.812Z,9.97
2023-03-31T16:53:35.923Z,10.06
2023-03-31T16:56:05.005Z,10.00
2023-03-31T16:58:32.042Z,9.99
2023-03-31T17:00:59.012Z,10.00
2023-03-31T17:03:26.950Z,9.92
2023-03-31T17:05:58.615Z,9.69
2023-03-31T17:08:27.868Z,9.70
2023-03-31T17:11:11.058Z,9.77
2023-03-31T17:13:39.712Z,9.69
2023-03-31T17:16:17.531Z,9.71
2023-03-31T17:18:49.312Z,9.72
2023-03-31T17:21:19.319Z,9.76
2023-03-31T17:23:47.757Z,9.78
2023-03-31T17:26:15.568Z,9.82
2023-03-31T17:28:43.131Z,9.83
2023-03-31T17:31:18.652Z,9.87
2023-03-31T17:33:46.325Z,9.85
2023-03-31T17:36:13.744Z,9.86
2023-03-31T17:38:42.306Z,9.84
2023-03-31T17:41:12.987Z,9.67
2023-03-31T17:43:40.608Z,9.74
2023-03-31T17:46:13.011Z,9.61
2023-03-31T17:48:40.894Z,9.59
2023-03-31T17:51:14.930Z,9.47
2023-03-31T17:53:44.433Z,9.35
2023-03-31T17:56:12.157Z,9.30
2023-03-31T17:58:39.705Z,9.36
2023-03-31T18:01:08.861Z,9.38
2023-03-31T18:03:36.721Z,9.43
2023-03-31T18:06:07.909Z,9.45
2023-03-31T18:08:36.287Z,9.36
2023-03-31T18:11:05.330Z,9.37
2023-03-31T18:13:34.763Z,9.33
2023-03-31T18:16:02.682Z,9.40
2023-03-31T18:18:29.767Z,9.48
2023-03-31T18:20:57.412Z,9.45
2023-03-31T18:23:24.403Z,9.42
2023-03-31T18:25:51.821Z,9.51
2023-03-31T18:28:18.929Z,9.56
2023-03-31T18:30:47.376Z,9.60
2023-03-31T18:33:15.720Z,9.60
2023-03-31T18:35:42.931Z,9.67
2023-03-31T18:38:10.013Z,9.82
2023-03-31T18:40:38.499Z,9.87
2023-03-31T18:43:06.195Z,10.00
2023-03-31T18:45:33.096Z,10.09
2023-03-31T18:48:00.406Z,10.05
2023-03-31T18:50:27.399Z,10.04
2023-03-31T18:52:54.858Z,9.94
2023-03-31T18:55:22.513Z,9.91
2023-03-31T18:57:49.619Z,9.83
2023-03-31T19:00:17.394Z,9.65
2023-03-31T19:02:44.844Z,9.44
2023-03-31T19:05:12.201Z,9.33
2023-03-31T19:07:40.418Z,9.16
2023-03-31T19:10:08.032Z,9.12
2023-03-31T19:12:34.988Z,8.98
2023-03-31T19:15:02.224Z,8.97
2023-03-31T19:17:29.151Z,8.98
2023-03-31T19:19:56.131Z,8.97
2023-03-31T19:22:22.997Z,8.92
2023-03-31T19:24:49.873Z,8.84
2023-03-31T19:27:16.861Z,8.77
2023-03-31T19:41:53.328Z,7.95
2023-03-31T19:44:20.266Z,8.09
2023-03-31T19:46:48.294Z,8.17
2023-03-31T19:49:15.588Z,8.26
2023-03-31T19:51:42.492Z,8.16
2023-03-31T19:54:11.465Z,8.14
2023-03-31T19:56:39.030Z,8.12
2023-03-31T19:59:06.363Z,8.10
2023-03-31T20:01:33.696Z,8.10
2023-03-31T20:04:01.026Z,8.10
2023-03-31T20:06:30.861Z,8.19
2023-03-31T20:09:00.882Z,8.14
2023-03-31T20:11:30.972Z,7.97
2023-03-31T20:13:58.770Z,8.02
2023-03-31T20:16:28.265Z,7.92
2023-03-31T20:19:04.926Z,7.90
2023-03-31T20:21:35.480Z,7.77
2023-03-31T20:24:02.925Z,7.80
2023-03-31T20:26:32.133Z,7.82
2023-03-31T20:29:04.472Z,7.78
2023-03-31T20:31:36.693Z,7.74
2023-03-31T20:34:06.896Z,7.71
2023-03-31T20:36:34.450Z,7.67
2023-03-31T20:39:04.385Z,7.62
2023-03-31T20:41:32.036Z,7.65
2023-03-31T20:43:59.363Z,7.69
2023-03-31T20:46:26.713Z,7.53
2023-03-31T20:48:56.678Z,7.48
2023-03-31T20:51:28.245Z,7.49
2023-03-31T20:53:56.696Z,7.35
2023-03-31T20:56:43.118Z,7.34
2023-03-31T20:59:12.464Z,7.34
2023-03-31T21:01:39.972Z,7.35
2023-03-31T21:04:09.841Z,7.37
2023-03-31T21:06:40.040Z,7.33
2023-03-31T21:09:07.465Z,7.36
2023-03-31T21:11:34.620Z,7.22
2023-03-31T21:14:02.014Z,7.17
2023-03-31T21:16:29.092Z,7.21
2023-03-31T21:18:57.143Z,7.29
2023-03-31T21:21:25.009Z,7.30
2023-03-31T21:23:52.096Z,7.39
2023-03-31T21:26:19.770Z,7.41
2023-03-31T21:28:46.796Z,7.43
2023-03-31T21:31:19.902Z,7.46
2023-03-31T21:33:47.260Z,7.41
2023-03-31T21:36:17.917Z,7.50
2023-03-31T21:38:45.786Z,7.49
2023-03-31T21:41:18.276Z,7.57
2023-03-31T21:43:46.197Z,7.70
2023-03-31T21:46:17.842Z,7.71
2023-03-31T21:48:45.079Z,7.80
2023-03-31T21:51:15.334Z,7.89
2023-03-31T21:53:42.263Z,7.96
2023-03-31T21:56:09.458Z,8.04
2023-03-31T21:58:39.384Z,8.15
2023-03-31T22:01:07.729Z,8.25
2023-03-31T22:03:35.692Z,8.38
2023-03-31T22:06:04.080Z,8.47
2023-03-31T22:08:31.772Z,8.56
2023-03-31T22:11:00.545Z,8.69
2023-03-31T22:13:29.101Z,8.86
2023-03-31T22:15:56.512Z,8.93
2023-03-31T22:18:23.799Z,8.99
2023-03-31T22:20:51.248Z,9.10
2023-03-31T22:23:20.701Z,9.18
2023-03-31T22:25:48.178Z,9.22
2023-03-31T22:28:17.070Z,9.19
2023-03-31T22:30:44.274Z,9.33
2023-03-31T22:33:22.162Z,9.28
2023-03-31T22:36:09.840Z,9.26
2023-03-31T22:38:36.846Z,9.25
2023-03-31T22:41:03.835Z,9.17
2023-03-31T22:43:32.558Z,9.14
2023-03-31T22:46:07.249Z,9.15
2023-03-31T22:48:34.666Z,9.21
2023-03-31T22:51:08.961Z,9.24
2023-03-31T22:53:36.070Z,9.26
2023-03-31T22:56:08.730Z,9.21
2023-03-31T22:58:35.731Z,9.35
2023-03-31T23:01:02.711Z,9.50
2023-03-31T23:03:29.695Z,9.43
2023-03-31T23:06:03.381Z,9.45
2023-03-31T23:08:30.351Z,9.59
2023-03-31T23:10:59.366Z,9.64
2023-03-31T23:13:27.229Z,9.72
2023-03-31T23:15:54.397Z,9.73
2023-03-31T23:18:22.613Z,9.77
2023-03-31T23:20:49.598Z,9.78
2023-03-31T23:23:16.612Z,9.85
2023-03-31T23:25:43.518Z,9.90
2023-03-31T23:28:10.358Z,9.90
2023-03-31T23:30:37.261Z,9.87
2023-03-31T23:33:04.321Z,9.90
2023-03-31T23:35:31.449Z,9.99
2023-03-31T23:37:58.698Z,9.96
2023-03-31T23:40:25.575Z,9.93
2023-03-31T23:42:52.483Z,9.92
2023-03-31T23:45:19.492Z,9.92
2023-03-31T23:47:46.425Z,9.90
2023-03-31T23:50:13.367Z,9.91
2023-03-31T23:52:40.214Z,9.93
2023-03-31T23:55:07.453Z,9.94
2023-03-31T23:57:34.436Z,9.86
